Time;durP1;ratioP1;P1;durP2;ratioP2;P2;SDS_P1;SDS_P2;PMS_P1;PMS_P2;Temp;Humidity;BMP_temperature;BMP_pressure;BME280_temperature;BME280_humidity;BME280_pressure;Samples;Min_cycle;Max_cycle;Signal;HPM_P1;HPM_P2
2022/07/01 00:01:59;;;;;;;3.03;1.60;;;25.50;62.20;;;;;;4493807;31;20510;-68
2022/07/01 00:04:27;;;;;;;4.00;1.70;;;25.50;62.20;;;;;;4493606;31;20127;-69
2022/07/01 00:06:54;;;;;;;3.63;1.60;;;25.50;62.20;;;;;;4493702;31;20077;-68
2022/07/01 00:09:21;;;;;;;2.65;1.50;;;25.50;62.10;;;;;;4493860;31;20487;-69
2022/07/01 00:11:47;;;;;;;2.95;1.60;;;25.50;62.20;;;;;;4493565;31;20069;-69
2022/07/01 00:14:14;;;;;;;4.30;1.45;;;25.50;62.20;;;;;;4493473;31;20104;-69
2022/07/01 00:16:40;;;;;;;4.60;1.77;;;25.50;62.20;;;;;;4492857;31;20088;-68
2022/07/01 00:19:06;;;;;;;3.53;1.63;;;25.50;62.10;;;;;;4493434;31;20120;-69
2022/07/01 00:21:33;;;;;;;2.20;1.20;;;25.50;62.10;;;;;;4493076;31;20639;-68
2022/07/01 00:23:59;;;;;;;2.63;1.52;;;25.40;62.10;;;;;;4493366;31;20162;-69
2022/07/01 00:26:25;;;;;;;3.20;1.55;;;25.50;62.10;;;;;;4493506;31;20231;-69
2022/07/01 00:28:51;;;;;;;2.72;1.33;;;25.40;62.10;;;;;;4493300;31;20096;-69
2022/07/01 00:31:17;;;;;;;3.63;1.17;;;25.40;62.10;;;;;;4493166;31;20073;-69
2022/07/01 00:33:43;;;;;;;4.65;1.70;;;25.40;62.00;;;;;;4493219;31;20522;-69
2022/07/01 00:36:10;;;;;;;3.65;1.55;;;25.40;62.10;;;;;;4493192;31;20116;-69
2022/07/01 00:38:36;;;;;;;2.25;1.30;;;25.40;62.00;;;;;;4493345;31;20083;-68
2022/07/01 00:41:02;;;;;;;2.28;1.10;;;25.40;62.00;;;;;;4493057;31;20087;-69
2022/07/01 00:43:27;;;;;;;3.80;1.70;;;25.40;62.00;;;;;;4493025;31;20123;-69
2022/07/01 00:45:53;;;;;;;1.98;1.20;;;25.40;62.10;;;;;;4492536;31;20095;-69
2022/07/01 00:48:22;;;;;;;2.72;1.40;;;25.40;62.10;;;;;;4492806;31;20077;-69
2022/07/01 00:50:48;;;;;;;3.25;1.23;;;25.30;62.00;;;;;;4492916;31;20450;-68
2022/07/01 00:53:14;;;;;;;3.63;1.40;;;25.40;62.10;;;;;;4492771;31;20089;-69
2022/07/01 00:55:41;;;;;;;2.75;1.33;;;25.40;62.10;;;;;;4492887;31;20423;-69
2022/07/01 00:58:08;;;;;;;2.85;1.23;;;25.40;62.10;;;;;;4492539;31;20073;-68
2022/07/01 01:00:36;;;;;;;3.50;1.30;;;25.40;62.10;;;;;;4492991;31;20624;-69
2022/07/01 01:03:02;;;;;;;3.35;1.25;;;25.40;62.10;;;;;;4492591;31;20497;-69
2022/07/01 01:05:28;;;;;;;3.45;1.30;;;25.40;62.00;;;;;;4492488;31;20482;-69
2022/07/01 01:07:54;;;;;;;4.20;2.00;;;25.40;62.10;;;;;;4491698;31;20087;-66
2022/07/01 01:10:23;;;;;;;3.25;1.30;;;25.40;62.10;;;;;;4492445;31;20422;-66
2022/07/01 01:12:49;;;;;;;3.00;1.13;;;25.30;62.00;;;;;;4492311;31;20116;-66
2022/07/01 01:15:19;;;;;;;2.08;1.02;;;25.40;62.00;;;;;;4492403;31;20154;-65
2022/07/01 01:17:46;;;;;;;1.98;1.25;;;25.40;62.10;;;;;;4492400;31;20112;-66
2022/07/01 01:20:16;;;;;;;4.93;1.27;;;25.30;63.00;;;;;;4492548;31;20088;-66
2022/07/01 01:22:44;;;;;;;3.30;1.35;;;25.30;62.00;;;;;;4492454;31;20065;-66
2022/07/01 01:25:10;;;;;;;6.82;1.30;;;25.30;62.00;;;;;;4492246;31;20065;-66
2022/07/01 01:27:37;;;;;;;2.92;1.33;;;25.30;62.00;;;;;;4492492;31;20097;-66
2022/07/01 01:30:08;;;;;;;3.05;1.20;;;25.30;62.00;;;;;;4492265;31;20083;-66
2022/07/01 01:32:34;;;;;;;3.97;1.23;;;25.30;62.00;;;;;;4492395;31;20065;-66
2022/07/01 01:35:00;;;;;;;2.00;1.08;;;25.30;62.00;;;;;;4492386;31;20077;-64
2022/07/01 01:37:27;;;;;;;2.50;0.98;;;25.30;62.00;;;;;;4492225;31;20099;-65
2022/07/01 01:39:53;;;;;;;3.47;1.27;;;25.30;62.10;;;;;;4492195;31;20069;-65
2022/07/01 01:42:19;;;;;;;3.53;1.13;;;25.30;62.10;;;;;;4491876;31;20085;-64
2022/07/01 01:44:45;;;;;;;3.25;1.15;;;25.30;62.10;;;;;;4491692;31;20212;-65
2022/07/01 01:47:11;;;;;;;4.07;1.33;;;25.30;62.20;;;;;;4492203;31;20568;-65
2022/07/01 01:49:37;;;;;;;2.38;1.10;;;25.30;62.20;;;;;;4491073;31;20085;-65
2022/07/01 01:52:03;;;;;;;2.53;1.08;;;25.30;62.20;;;;;;4492181;31;20069;-65
2022/07/01 01:54:29;;;;;;;9.52;1.10;;;25.30;62.20;;;;;;4491082;31;20142;-65
2022/07/01 01:56:55;;;;;;;2.30;1.20;;;25.30;62.20;;;;;;4490919;31;20258;-65
2022/07/01 01:59:21;;;;;;;2.75;1.10;;;25.30;62.10;;;;;;4491050;31;20503;-65
2022/07/01 02:01:47;;;;;;;2.88;1.00;;;25.30;62.20;;;;;;4491998;31;20158;-65
2022/07/01 02:04:13;;;;;;;2.20;1.00;;;25.30;62.20;;;;;;4491725;31;20511;-65
2022/07/01 02:06:40;;;;;;;2.70;1.08;;;25.30;62.20;;;;;;4492173;31;20209;-65
2022/07/01 02:09:08;;;;;;;2.58;1.02;;;25.30;62.20;;;;;;4490901;31;20080;-65
2022/07/01 02:11:35;;;;;;;1.83;1.02;;;25.30;62.20;;;;;;4491951;31;20123;-64
2022/07/01 02:14:00;;;;;;;3.65;1.10;;;25.30;62.20;;;;;;4492402;32;20097;-65
2022/07/01 02:16:27;;;;;;;2.83;1.10;;;25.20;62.10;;;;;;4491919;32;20084;-65
2022/07/01 02:18:53;;;;;;;2.40;1.15;;;25.20;62.10;;;;;;4491878;32;20057;-65
2022/07/01 02:21:19;;;;;;;3.42;1.00;;;25.20;62.10;;;;;;4491861;32;20167;-65
2022/07/01 02:23:44;;;;;;;2.97;1.10;;;25.20;62.10;;;;;;4491798;32;20077;-65
2022/07/01 02:26:10;;;;;;;3.05;0.90;;;25.20;62.10;;;;;;4491826;32;20069;-65
2022/07/01 02:28:40;;;;;;;2.50;1.00;;;25.20;62.10;;;;;;4491552;32;20081;-65
2022/07/01 02:31:06;;;;;;;2.88;1.45;;;25.20;62.10;;;;;;4491853;32;20123;-64
2022/07/01 02:33:32;;;;;;;1.67;0.90;;;25.20;62.20;;;;;;4491969;32;20087;-64
2022/07/01 02:35:58;;;;;;;3.47;1.10;;;25.20;62.20;;;;;;4491760;32;20069;-63
2022/07/01 02:38:24;;;;;;;3.58;0.93;;;25.20;62.30;;;;;;4491785;31;20120;-64
2022/07/01 02:40:50;;;;;;;1.55;0.80;;;25.20;62.30;;;;;;4495178;31;20258;-64
2022/07/01 02:43:16;;;;;;;2.65;1.05;;;25.20;62.20;;;;;;4494699;31;20121;-64
2022/07/01 02:45:42;;;;;;;2.97;1.20;;;25.20;62.20;;;;;;4494381;31;20073;-65
2022/07/01 02:48:08;;;;;;;3.13;0.90;;;25.20;62.20;;;;;;4494645;31;20073;-65
2022/07/01 02:50:34;;;;;;;1.77;0.88;;;25.20;62.20;;;;;;4494674;31;20418;-64
2022/07/01 02:53:00;;;;;;;1.63;0.93;;;25.10;62.00;;;;;;4479943;31;20479;-64
2022/07/01 02:55:28;;;;;;;2.78;0.95;;;25.20;62.20;;;;;;4493351;31;20085;-64
2022/07/01 02:57:55;;;;;;;3.70;1.00;;;25.10;62.10;;;;;;4494358;31;20186;-64
2022/07/01 03:00:22;;;;;;;2.25;0.82;;;25.10;62.20;;;;;;4494933;31;20525;-64
2022/07/01 03:02:48;;;;;;;3.15;1.10;;;25.10;62.20;;;;;;4494761;31;20204;-64
2022/07/01 03:05:15;;;;;;;2.15;0.90;;;25.10;62.20;;;;;;4494545;31;20177;-64
2022/07/01 03:07:41;;;;;;;1.27;0.73;;;25.10;62.20;;;;;;4493499;31;20084;-65
2022/07/01 03:10:08;;;;;;;2.53;1.00;;;25.10;62.20;;;;;;4493217;31;20087;-64
2022/07/01 03:12:34;;;;;;;3.03;0.85;;;25.00;62.20;;;;;;4494390;31;20210;-64
2022/07/01 03:15:07;;;;;;;4.35;0.75;;;25.00;62.10;;;;;;4494396;31;20116;-64
2022/07/01 03:17:36;;;;;;;3.28;0.75;;;25.00;62.20;;;;;;4494700;31;20087;-64
2022/07/01 03:20:03;;;;;;;4.20;1.00;;;25.10;62.30;;;;;;4494581;31;20088;-64
2022/07/01 03:22:31;;;;;;;2.90;1.10;;;25.00;62.20;;;;;;4493145;31;20077;-64
2022/07/01 03:24:57;;;;;;;5.07;0.80;;;25.00;62.20;;;;;;4494446;31;20177;-64
2022/07/01 03:27:24;;;;;;;2.97;0.77;;;25.00;62.20;;;;;;4494254;31;20526;-64
2022/07/01 03:29:51;;;;;;;1.73;0.73;;;25.00;62.20;;;;;;4494189;31;20064;-64
2022/07/01 03:32:17;;;;;;;3.80;1.02;;;25.00;62.10;;;;;;4494064;31;20526;-64
2022/07/01 03:34:45;;;;;;;1.63;0.70;;;25.00;62.10;;;;;;4494151;31;20073;-64
2022/07/01 03:37:12;;;;;;;2.38;1.00;;;25.00;62.20;;;;;;4494419;31;20057;-65
2022/07/01 03:39:38;;;;;;;1.77;0.75;;;25.00;62.10;;;;;;4493783;31;20099;-64
2022/07/01 03:42:05;;;;;;;2.75;0.68;;;25.00;62.20;;;;;;4492766;31;20073;-64
2022/07/01 03:44:33;;;;;;;1.23;0.80;;;25.00;62.20;;;;;;4493973;31;20096;-64
2022/07/01 03:46:58;;;;;;;2.40;0.82;;;25.00;62.10;;;;;;4493792;31;20085;-64
2022/07/01 03:49:25;;;;;;;1.27;0.60;;;25.00;62.20;;;;;;4493634;31;20065;-64
2022/07/01 03:51:51;;;;;;;2.63;0.70;;;25.00;62.10;;;;;;4492809;31;20166;-64
2022/07/01 03:54:29;;;;;;;1.15;0.57;;;25.00;62.20;;;;;;4493641;31;20185;-65
2022/07/01 03:57:04;;;;;;;1.95;0.90;;;25.00;62.10;;;;;;4493924;31;20069;-65
2022/07/01 03:59:31;;;;;;;1.15;0.80;;;25.00;62.10;;;;;;4493444;31;20085;-64
2022/07/01 04:01:58;;;;;;;2.45;0.73;;;25.00;62.10;;;;;;4493824;31;20121;-64
2022/07/01 04:04:25;;;;;;;5.93;0.90;;;24.90;62.10;;;;;;4493948;31;20081;-64
2022/07/01 04:06:53;;;;;;;1.20;0.80;;;25.00;62.20;;;;;;4493883;31;20073;-64
2022/07/01 04:09:20;;;;;;;1.38;0.70;;;25.00;62.10;;;;;;4493459;31;20088;-64
2022/07/01 04:11:48;;;;;;;1.85;0.65;;;24.90;62.10;;;;;;4493518;31;20753;-65
2022/07/01 04:14:14;;;;;;;2.58;0.70;;;24.90;62.10;;;;;;4493559;31;20404;-64
2022/07/01 04:16:41;;;;;;;1.25;0.70;;;24.90;62.10;;;;;;4493490;31;20414;-65
2022/07/01 04:19:09;;;;;;;1.90;0.70;;;24.90;62.10;;;;;;4493458;31;20107;-64
2022/07/01 04:24:22;;;;;;;3.50;0.90;;;24.90;62.10;;;;;;4493683;31;20077;-65
2022/07/01 04:26:49;;;;;;;1.42;0.73;;;24.90;62.10;;;;;;4492347;31;20107;-64
2022/07/01 04:29:15;;;;;;;2.92;0.77;;;24.90;62.10;;;;;;4493324;31;20096;-64
2022/07/01 04:31:41;;;;;;;1.58;0.80;;;24.90;62.10;;;;;;4493222;31;20089;-64
2022/07/01 04:34:07;;;;;;;2.08;0.73;;;24.90;62.10;;;;;;4493011;31;20198;-65
2022/07/01 04:36:34;;;;;;;1.20;0.70;;;24.90;62.20;;;;;;4493429;31;20136;-64
2022/07/01 04:39:01;;;;;;;1.10;0.65;;;24.90;62.20;;;;;;4493240;31;20104;-64
2022/07/01 04:44:11;;;;;;;1.52;0.80;;;24.80;62.10;;;;;;4493488;31;20085;-65
2022/07/01 04:46:37;;;;;;;1.30;0.57;;;24.90;62.20;;;;;;4492887;31;20124;-64
2022/07/01 04:49:03;;;;;;;1.23;0.70;;;24.90;62.20;;;;;;4492971;31;20077;-64
2022/07/01 04:51:29;;;;;;;1.60;0.60;;;24.90;62.20;;;;;;4492885;31;20092;-64
2022/07/01 04:53:55;;;;;;;6.20;0.68;;;24.80;62.10;;;;;;4492809;31;20368;-64
2022/07/01 04:56:21;;;;;;;1.23;0.70;;;24.80;62.10;;;;;;4493086;31;20081;-65
2022/07/01 04:58:47;;;;;;;1.05;0.68;;;24.80;62.10;;;;;;4492840;31;20154;-64
2022/07/01 05:01:13;;;;;;;1.67;0.57;;;24.80;62.10;;;;;;4492775;31;20080;-64
2022/07/01 05:03:39;;;;;;;1.38;0.60;;;24.80;62.10;;;;;;4492643;31;20076;-64
2022/07/01 05:06:05;;;;;;;2.55;0.85;;;24.80;62.10;;;;;;4493046;31;20069;-64
2022/07/01 05:08:31;;;;;;;0.75;0.57;;;24.80;62.10;;;;;;4492712;31;20231;-64
2022/07/01 05:10:57;;;;;;;2.50;0.70;;;24.80;62.10;;;;;;4491383;31;20093;-65
2022/07/01 05:13:23;;;;;;;2.38;0.50;;;24.80;62.10;;;;;;4492795;31;20057;-64
2022/07/01 05:15:49;;;;;;;1.48;0.60;;;24.80;62.10;;;;;;4492630;31;20494;-65
2022/07/01 05:23:45;;;;;;;1.17;0.43;;;24.80;62.10;;;;;;4492458;31;20158;-64
2022/07/01 05:26:16;;;;;;;0.82;0.50;;;24.80;62.10;;;;;;4491412;31;20081;-65
2022/07/01 05:28:45;;;;;;;1.40;0.70;;;24.70;62.00;;;;;;4492489;31;20073;-65
2022/07/01 05:31:11;;;;;;;0.95;0.50;;;24.70;62.10;;;;;;4492419;31;20521;-65
2022/07/01 05:33:37;;;;;;;0.50;0.40;;;24.70;62.00;;;;;;4492368;31;20089;-64
2022/07/01 05:36:03;;;;;;;0.85;0.52;;;24.70;62.10;;;;;;4492604;31;20076;-64
2022/07/01 05:38:29;;;;;;;1.92;0.60;;;24.70;62.00;;;;;;4492248;31;20073;-64
2022/07/01 05:40:55;;;;;;;1.67;0.77;;;24.70;62.00;;;;;;4490955;31;20061;-64
2022/07/01 05:43:20;;;;;;;0.60;0.40;;;24.70;62.10;;;;;;4492518;31;20223;-64
2022/07/01 05:45:47;;;;;;;0.98;0.60;;;24.70;62.10;;;;;;4491705;31;20097;-64
2022/07/01 05:48:13;;;;;;;1.67;0.70;;;24.70;62.10;;;;;;4491983;31;20073;-64
2022/07/01 05:50:43;;;;;;;1.27;0.47;;;24.70;62.10;;;;;;4491114;31;20249;-64
2022/07/01 05:53:09;;;;;;;1.45;0.55;;;24.70;62.00;;;;;;4491659;31;20107;-64
2022/07/01 05:55:35;;;;;;;0.88;0.60;;;24.70;62.10;;;;;;4492139;31;20073;-64
2022/07/01 05:58:01;;;;;;;1.90;0.70;;;24.70;62.10;;;;;;4492055;31;20526;-64
2022/07/01 06:00:28;;;;;;;1.33;0.52;;;24.70;62.10;;;;;;4492064;31;20069;-64
2022/07/01 06:02:54;;;;;;;1.42;0.68;;;24.70;62.10;;;;;;4492273;31;20128;-64
2022/07/01 06:05:19;;;;;;;0.88;0.50;;;24.70;62.00;;;;;;4492109;31;20548;-64
2022/07/01 06:07:45;;;;;;;2.08;0.75;;;24.70;62.00;;;;;;4491830;31;20081;-65
2022/07/01 06:10:11;;;;;;;1.90;0.68;;;24.70;62.00;;;;;;4490652;31;20065;-65
2022/07/01 06:12:38;;;;;;;1.02;0.50;;;24.70;62.10;;;;;;4491860;31;20092;-64
2022/07/01 06:15:07;;;;;;;2.28;0.52;;;24.70;62.10;;;;;;4491124;31;20432;-65
2022/07/01 06:17:34;;;;;;;1.10;0.60;;;24.70;62.00;;;;;;4491917;31;20065;-64
2022/07/01 06:20:00;;;;;;;0.77;0.50;;;24.70;62.10;;;;;;4491905;32;20174;-65
2022/07/01 06:22:27;;;;;;;1.42;0.52;;;24.70;62.10;;;;;;4491589;32;20136;-64
2022/07/01 06:24:52;;;;;;;1.67;0.73;;;24.70;62.10;;;;;;4491872;32;20084;-63
2022/07/01 06:27:18;;;;;;;5.90;0.70;;;24.70;62.00;;;;;;4492101;32;20084;-64
2022/07/01 06:29:45;;;;;;;2.88;0.73;;;24.70;61.80;;;;;;4491589;32;20127;-67
2022/07/01 06:32:11;;;;;;;2.55;0.82;;;24.70;61.50;;;;;;4491733;32;20637;-64
2022/07/01 06:34:38;;;;;;;1.88;0.70;;;24.70;61.30;;;;;;4491820;32;20099;-63
2022/07/01 06:37:04;;;;;;;1.55;0.85;;;24.60;61.00;;;;;;4491604;32;20120;-66
2022/07/01 06:39:30;;;;;;;2.20;1.00;;;24.60;60.90;;;;;;4492021;32;20099;-64
2022/07/01 06:41:56;;;;;;;2.35;0.90;;;24.60;60.70;;;;;;4492270;32;20376;-63
2022/07/01 06:44:22;;;;;;;3.65;1.15;;;24.60;60.50;;;;;;4492009;32;20089;-63
2022/07/01 06:46:48;;;;;;;4.20;1.40;;;24.60;60.40;;;;;;4491719;32;20089;-64
2022/07/01 06:49:14;;;;;;;1.85;1.00;;;24.60;60.30;;;;;;4491405;32;20088;-64
2022/07/01 06:51:40;;;;;;;2.55;1.00;;;24.60;60.30;;;;;;4491350;32;20406;-63
2022/07/01 06:54:06;;;;;;;3.28;1.40;;;24.60;60.20;;;;;;4491807;32;20156;-64
2022/07/01 06:56:32;;;;;;;2.42;1.33;;;24.50;60.00;;;;;;4491700;32;20222;-63
2022/07/01 06:58:58;;;;;;;2.15;1.27;;;24.50;59.90;;;;;;4491711;32;20076;-63
2022/07/01 07:01:24;;;;;;;3.50;1.17;;;24.50;59.90;;;;;;4491568;32;20057;-64
2022/07/01 07:03:49;;;;;;;4.28;1.45;;;24.50;59.80;;;;;;4491609;32;20115;-63
2022/07/01 07:06:15;;;;;;;5.32;1.30;;;24.50;59.90;;;;;;4491304;32;20116;-64
2022/07/01 07:08:41;;;;;;;3.40;1.10;;;24.50;59.90;;;;;;4491279;32;20166;-64
2022/07/01 07:11:08;;;;;;;3.92;1.38;;;24.50;59.80;;;;;;4491769;32;20178;-63
2022/07/01 07:13:35;;;;;;;3.90;1.60;;;24.50;59.90;;;;;;4491631;32;20507;-63
2022/07/01 07:16:02;;;;;;;5.32;1.40;;;24.60;59.90;;;;;;4491501;32;20415;-63
2022/07/01 07:18:28;;;;;;;3.75;1.20;;;24.60;59.70;;;;;;4491173;32;20097;-64
2022/07/01 07:20:54;;;;;;;4.43;1.33;;;24.60;59.60;;;;;;4491446;32;20469;-64
2022/07/01 07:23:22;;;;;;;3.95;1.27;;;24.50;59.60;;;;;;4491351;32;20422;-64
2022/07/01 07:25:48;;;;;;;4.00;1.40;;;24.60;59.60;;;;;;4493298;31;20506;-64
2022/07/01 07:28:14;;;;;;;4.70;1.40;;;24.50;59.50;;;;;;4494228;31;20289;-64
2022/07/01 07:30:40;;;;;;;3.33;1.30;;;24.60;59.50;;;;;;4494186;31;20151;-63
2022/07/01 07:33:06;;;;;;;2.67;1.33;;;24.50;59.40;;;;;;4493900;31;20089;-64
2022/07/01 07:35:31;;;;;;;3.90;1.50;;;24.50;59.30;;;;;;4494145;31;20253;-64
2022/07/01 07:37:57;;;;;;;6.25;1.40;;;24.50;59.30;;;;;;4494251;31;20166;-64
2022/07/01 07:40:24;;;;;;;2.50;1.38;;;24.50;59.30;;;;;;4494334;31;20398;-64
2022/07/01 07:42:50;;;;;;;5.78;1.50;;;24.50;59.20;;;;;;4493730;31;20077;-63
2022/07/01 07:45:16;;;;;;;3.97;1.60;;;24.60;59.20;;;;;;4493757;31;20084;-63
2022/07/01 07:47:44;;;;;;;4.57;1.77;;;24.60;59.20;;;;;;4494130;31;20092;-63
2022/07/01 07:50:10;;;;;;;6.35;1.85;;;24.50;59.00;;;;;;4493611;31;20061;-64
2022/07/01 07:52:36;;;;;;;4.90;1.73;;;24.50;59.10;;;;;;4493667;31;20069;-64
2022/07/01 07:55:03;;;;;;;4.15;1.85;;;24.50;59.00;;;;;;4493609;31;20174;-63
2022/07/01 07:57:29;;;;;;;4.05;1.92;;;24.50;59.10;;;;;;4493810;31;20077;-63
2022/07/01 07:59:55;;;;;;;4.32;2.20;;;24.50;59.00;;;;;;4492382;31;20083;-63
2022/07/01 08:02:21;;;;;;;4.60;1.80;;;24.50;58.80;;;;;;4492223;31;20131;-63
2022/07/01 08:04:47;;;;;;;5.32;1.67;;;24.50;58.90;;;;;;4493699;31;20136;-64
2022/07/01 08:07:13;;;;;;;3.85;1.90;;;24.60;59.10;;;;;;4493894;31;20207;-64
2022/07/01 08:09:41;;;;;;;7.15;2.38;;;24.50;58.80;;;;;;4493552;31;20091;-63
2022/07/01 08:12:07;;;;;;;6.05;2.00;;;24.50;58.70;;;;;;4493457;31;20089;-64
2022/07/01 08:14:33;;;;;;;7.57;2.30;;;24.50;58.60;;;;;;4493254;31;20065;-63
2022/07/01 08:16:59;;;;;;;6.97;2.13;;;24.50;58.70;;;;;;4493210;31;20073;-63
2022/07/01 08:19:26;;;;;;;5.00;2.13;;;24.50;58.60;;;;;;4493771;31;20085;-63
2022/07/01 08:21:52;;;;;;;6.50;2.40;;;24.50;58.80;;;;;;4493397;31;20414;-64
2022/07/01 08:24:18;;;;;;;5.70;2.15;;;24.50;58.70;;;;;;4493442;31;20533;-63
2022/07/01 08:26:44;;;;;;;5.47;2.17;;;24.50;58.70;;;;;;4493059;31;20077;-64
2022/07/01 08:29:10;;;;;;;5.68;2.35;;;24.60;58.70;;;;;;4493516;31;20592;-63
2022/07/01 08:31:36;;;;;;;6.60;2.58;;;24.60;58.70;;;;;;4492942;31;20084;-63
2022/07/01 08:34:02;;;;;;;6.60;2.42;;;24.60;58.70;;;;;;4493245;31;20072;-63
2022/07/01 08:36:28;;;;;;;5.13;2.45;;;24.60;58.70;;;;;;4492679;31;20509;-63
2022/07/01 08:38:54;;;;;;;5.90;2.50;;;24.60;58.60;;;;;;4493138;31;20091;-63
2022/07/01 08:41:20;;;;;;;9.95;2.55;;;24.60;58.70;;;;;;4493304;31;20077;-63
2022/07/01 08:43:46;;;;;;;8.95;2.70;;;24.60;58.70;;;;;;4493037;31;20460;-63
2022/07/01 08:46:12;;;;;;;5.13;2.10;;;24.60;58.70;;;;;;4491751;31;20128;-64
2022/07/01 08:48:44;;;;;;;5.07;2.20;;;24.70;58.70;;;;;;4493019;31;20418;-64
2022/07/01 08:51:11;;;;;;;4.57;2.20;;;24.70;58.70;;;;;;4493395;31;20088;-63
2022/07/01 08:53:37;;;;;;;6.82;2.35;;;24.60;58.60;;;;;;4492428;31;20116;-63
2022/07/01 08:58:51;;;;;;;4.40;2.10;;;24.60;58.40;;;;;;4492954;31;20135;-63
2022/07/01 09:01:23;;;;;;;7.60;2.50;;;24.60;58.30;;;;;;4492495;31;20113;-70
2022/07/01 09:04:12;;;;;;;4.00;2.40;;;24.60;58.40;;;;;;4492824;31;20265;-63
2022/07/01 09:06:37;;;;;;;4.85;1.92;;;24.60;58.20;;;;;;4492752;31;20522;-63
2022/07/01 09:09:18;;;;;;;4.18;1.90;;;24.60;58.10;;;;;;4492872;31;20142;-64
2022/07/01 09:11:46;;;;;;;6.03;2.42;;;24.70;57.90;;;;;;4492650;31;20085;-64
2022/07/01 09:14:14;;;;;;;4.28;2.08;;;24.70;58.10;;;;;;4492642;31;20073;-64
2022/07/01 09:16:48;;;;;;;5.28;1.83;;;24.70;57.90;;;;;;4492256;31;20103;-64
2022/07/01 09:19:15;;;;;;;4.50;2.13;;;24.70;57.80;;;;;;4492392;31;20112;-64
2022/07/01 09:21:42;;;;;;;5.50;2.10;;;24.70;57.80;;;;;;4492659;31;20096;-63
2022/07/01 09:24:32;;;;;;;6.20;2.03;;;24.70;57.70;;;;;;4491995;31;20089;-63
2022/07/01 09:27:08;;;;;;;6.57;1.80;;;24.70;57.70;;;;;;4492735;31;20261;-64
2022/07/01 09:29:37;;;;;;;6.80;1.85;;;24.70;57.70;;;;;;4492387;31;20418;-63
2022/07/01 09:32:05;;;;;;;2.90;1.63;;;24.70;57.60;;;;;;4490927;31;20061;-64
2022/07/01 09:34:39;;;;;;;4.43;2.13;;;24.70;57.60;;;;;;4492597;31;20203;-65
2022/07/01 09:37:05;;;;;;;4.05;1.58;;;24.70;57.60;;;;;;4492401;31;20079;-64
2022/07/01 09:39:45;;;;;;;3.95;1.80;;;24.70;57.60;;;;;;4491939;31;20096;-64
2022/07/01 09:42:12;;;;;;;7.55;1.80;;;24.70;57.30;;;;;;4492146;31;20514;-65
2022/07/01 09:44:58;;;;;;;4.03;1.70;;;24.70;57.50;;;;;;4492153;31;20097;-64
2022/07/01 09:47:27;;;;;;;5.38;1.67;;;24.70;57.30;;;;;;4492289;31;20077;-64
2022/07/01 09:49:55;;;;;;;3.28;1.30;;;24.70;57.50;;;;;;4491529;31;20203;-64
2022/07/01 09:52:24;;;;;;;5.05;1.40;;;24.70;57.40;;;;;;4491698;31;20596;-64
2022/07/01 09:54:50;;;;;;;5.72;1.60;;;24.70;57.40;;;;;;4492206;31;20069;-64
2022/07/01 09:57:17;;;;;;;4.13;1.15;;;24.70;57.30;;;;;;4492089;31;20109;-64
2022/07/01 09:59:43;;;;;;;4.65;1.33;;;24.70;57.30;;;;;;4492040;31;20583;-62
2022/07/01 10:02:10;;;;;;;4.93;1.60;;;24.70;57.20;;;;;;4492213;31;20087;-63
2022/07/01 10:04:40;;;;;;;2.67;1.45;;;24.70;57.10;;;;;;4491780;31;20431;-63
2022/07/01 10:07:06;;;;;;;4.88;1.23;;;24.70;57.00;;;;;;4492003;31;20090;-65
2022/07/01 10:09:31;;;;;;;3.42;1.10;;;24.70;56.90;;;;;;4491719;31;20065;-68
2022/07/01 10:12:31;;;;;;;4.00;0.90;;;24.70;56.70;;;;;;4491867;31;20116;-63
2022/07/01 10:14:59;;;;;;;3.55;1.02;;;24.70;56.30;;;;;;4491958;31;20640;-68
2022/07/01 10:17:43;;;;;;;4.00;1.33;;;24.70;56.50;;;;;;4492215;31;20085;-63
2022/07/01 10:20:10;;;;;;;;;;;24.70;56.20;;;;;;4492956;32;20077;-64
2022/07/01 10:22:37;;;;;;;3.53;1.20;;;24.70;56.20;;;;;;4491842;32;20450;-63
2022/07/01 10:25:34;;;;;;;3.22;0.95;;;24.70;56.40;;;;;;4491665;32;20087;-63
2022/07/01 10:28:20;;;;;;;2.20;0.85;;;24.70;56.00;;;;;;4491604;32;20515;-64
2022/07/01 10:30:50;;;;;;;2.47;0.80;;;24.80;56.10;;;;;;4492025;32;20077;-63
2022/07/01 10:33:30;;;;;;;2.97;0.90;;;24.80;56.10;;;;;;4491573;32;20114;-63
2022/07/01 10:36:23;;;;;;;4.97;0.95;;;24.80;55.90;;;;;;4491638;32;20093;-63
2022/07/01 10:39:06;;;;;;;1.90;0.70;;;24.80;56.10;;;;;;4483366;32;20089;-63
2022/07/01 10:41:41;;;;;;;5.30;1.10;;;24.80;56.10;;;;;;4491564;32;20521;-63
2022/07/01 10:44:14;;;;;;;4.25;0.95;;;24.80;56.20;;;;;;4491760;32;20072;-63
2022/07/01 10:46:45;;;;;;;2.95;0.73;;;24.80;56.30;;;;;;4491354;32;20502;-63
2022/07/01 10:49:18;;;;;;;1.90;0.90;;;24.80;56.30;;;;;;4491718;32;20092;-63
2022/07/01 10:51:50;;;;;;;1.58;0.60;;;24.80;56.20;;;;;;4492104;32;20068;-63
2022/07/01 10:54:34;;;;;;;1.90;0.85;;;24.80;56.40;;;;;;4491584;32;20230;-64
2022/07/01 10:57:15;;;;;;;3.35;0.98;;;24.80;56.10;;;;;;4491292;32;20127;-64
2022/07/01 10:59:42;;;;;;;2.28;0.93;;;24.80;56.10;;;;;;4492179;31;20081;-63
2022/07/01 11:02:18;;;;;;;4.35;1.08;;;24.80;56.20;;;;;;4494648;31;20536;-63
2022/07/01 11:04:45;;;;;;;2.88;1.05;;;24.80;56.00;;;;;;4494609;31;20101;-63
2022/07/01 11:07:11;;;;;;;3.42;0.80;;;24.80;56.10;;;;;;4494561;31;20596;-65
2022/07/01 11:09:37;;;;;;;1.30;0.52;;;24.80;55.90;;;;;;4494477;31;20562;-63
2022/07/01 11:12:06;;;;;;;5.63;1.00;;;24.70;55.90;;;;;;4494129;31;20148;-64
2022/07/01 11:14:41;;;;;;;2.78;0.90;;;24.70;55.90;;;;;;4494180;31;20089;-64
2022/07/01 11:17:08;;;;;;;4.57;0.90;;;24.70;55.80;;;;;;4494717;31;20190;-64
2022/07/01 11:19:34;;;;;;;3.03;0.90;;;24.70;55.90;;;;;;4494331;31;20080;-63
2022/07/01 11:22:01;;;;;;;3.53;1.10;;;24.70;55.80;;;;;;4494386;31;20135;-64
2022/07/01 11:24:27;;;;;;;3.83;1.00;;;24.70;55.70;;;;;;4494115;31;20073;-64
2022/07/01 11:27:09;;;;;;;1.02;0.70;;;24.70;55.70;;;;;;4492897;31;20594;-64
2022/07/01 11:29:36;;;;;;;1.15;0.50;;;24.70;55.70;;;;;;4494314;31;20498;-64
2022/07/01 11:32:02;;;;;;;4.50;0.90;;;24.60;55.80;;;;;;4494086;31;20076;-64
2022/07/01 11:34:29;;;;;;;1.88;0.60;;;24.60;56.70;;;;;;4494143;31;20100;-64
2022/07/01 11:39:43;;;;;;;5.22;0.80;;;24.60;55.70;;;;;;4494088;31;20064;-63
2022/07/01 11:42:11;;;;;;;4.72;0.93;;;24.60;55.80;;;;;;4494277;31;20085;-64
2022/07/01 11:44:40;;;;;;;2.92;0.52;;;24.60;55.90;;;;;;4493971;31;20672;-63
2022/07/01 11:47:08;;;;;;;3.22;0.82;;;24.60;56.00;;;;;;4493794;31;20089;-64
2022/07/01 11:49:44;;;;;;;4.07;0.82;;;24.60;56.10;;;;;;4493651;31;20077;-63
2022/07/01 11:52:10;;;;;;;3.78;0.77;;;24.60;56.10;;;;;;4493935;31;20195;-64
2022/07/01 11:54:43;;;;;;;4.18;0.70;;;24.70;56.20;;;;;;4493895;31;20088;-64
2022/07/01 11:57:11;;;;;;;2.27;0.80;;;24.70;56.30;;;;;;4494178;31;20157;-64
2022/07/01 11:59:38;;;;;;;4.50;0.85;;;24.70;56.30;;;;;;4493753;31;20330;-64
2022/07/01 12:02:04;;;;;;;1.70;0.77;;;24.70;56.30;;;;;;4493518;31;20511;-65
2022/07/01 12:04:30;;;;;;;3.08;0.80;;;24.70;56.40;;;;;;4493701;31;20099;-64
2022/07/01 12:06:57;;;;;;;4.72;0.70;;;24.70;56.40;;;;;;4493689;31;20099;-64
2022/07/01 12:09:24;;;;;;;3.42;1.00;;;24.70;56.40;;;;;;4493598;31;20510;-64
2022/07/01 12:11:54;;;;;;;2.90;0.65;;;24.70;56.30;;;;;;4491601;31;20469;-64
2022/07/01 12:14:25;;;;;;;2.60;0.68;;;24.70;56.30;;;;;;4493297;31;20497;-65
2022/07/01 12:16:53;;;;;;;1.70;0.30;;;24.70;57.10;;;;;;4493527;31;20511;-64
2022/07/01 12:19:19;;;;;;;1.80;0.40;;;24.70;56.20;;;;;;4493262;31;20081;-64
2022/07/01 12:21:53;;;;;;;2.90;0.85;;;24.70;56.20;;;;;;4493274;31;20057;-67
2022/07/01 12:24:23;;;;;;;2.90;0.40;;;24.70;56.10;;;;;;4493413;31;20502;-64
2022/07/01 12:26:58;;;;;;;1.17;0.60;;;24.70;56.20;;;;;;4494220;31;20127;-64
2022/07/01 12:29:26;;;;;;;3.22;0.60;;;24.70;56.20;;;;;;4493605;31;20576;-64
2022/07/01 12:32:04;;;;;;;6.35;0.50;;;24.70;56.20;;;;;;4493230;31;20099;-64
2022/07/01 12:35:00;;;;;;;1.92;0.50;;;24.70;56.20;;;;;;4493246;31;20080;-64
2022/07/01 12:37:31;;;;;;;2.45;0.65;;;24.70;56.10;;;;;;4492319;31;20108;-64
2022/07/01 12:39:58;;;;;;;1.77;0.50;;;24.70;56.30;;;;;;4493532;31;20089;-63
2022/07/01 12:42:43;;;;;;;1.35;0.57;;;24.70;56.30;;;;;;4493156;31;20093;-63
2022/07/01 12:45:12;;;;;;;2.90;0.57;;;24.70;56.20;;;;;;4492920;31;20499;-63
2022/07/01 12:47:40;;;;;;;2.20;0.70;;;24.70;56.10;;;;;;4493181;31;20197;-63
2022/07/01 12:50:13;;;;;;;2.50;0.60;;;24.80;56.20;;;;;;4493009;31;20077;-63
2022/07/01 12:52:41;;;;;;;2.25;0.43;;;24.80;56.30;;;;;;4493247;31;20139;-64
2022/07/01 12:55:18;;;;;;;2.45;0.77;;;24.80;56.30;;;;;;4492953;31;20093;-64
2022/07/01 12:57:47;;;;;;;3.83;0.60;;;24.80;56.30;;;;;;4491575;31;20085;-63
2022/07/01 13:00:17;;;;;;;2.25;0.60;;;24.80;56.30;;;;;;4493036;31;20525;-64
2022/07/01 13:02:44;;;;;;;1.55;0.40;;;24.80;56.30;;;;;;4492605;31;20065;-64
2022/07/01 13:05:10;;;;;;;3.17;0.70;;;24.80;56.30;;;;;;4492498;31;20081;-64
2022/07/01 13:07:37;;;;;;;2.28;0.73;;;24.80;56.10;;;;;;4492767;31;20095;-67
2022/07/01 13:10:03;;;;;;;3.58;0.57;;;24.80;56.00;;;;;;4492962;31;20092;-64